createdAt,value
2023-05-04T00:00:41.191Z,10.43
2023-05-04T00:03:09.594Z,10.60
2023-05-04T00:05:39.389Z,10.00
2023-05-04T00:08:07.907Z,10.30
2023-05-04T00:10:36.311Z,9.73
2023-05-04T00:13:04.771Z,9.90
2023-05-04T00:15:33.137Z,10.60
2023-05-04T00:18:01.847Z,10.50
2023-05-04T00:20:30.255Z,9.87
2023-05-04T00:22:59.942Z,10.30
2023-05-04T00:25:28.299Z,10.20
2023-05-04T00:27:56.970Z,10.27
2023-05-04T00:30:25.320Z,10.20
2023-05-04T00:32:54.204Z,10.33
2023-05-04T00:35:22.557Z,10.50
2023-05-04T00:37:51.176Z,10.27
2023-05-04T00:40:21.449Z,10.20
2023-05-04T00:42:49.781Z,10.30
2023-05-04T00:45:18.339Z,10.00
2023-05-04T00:47:46.810Z,9.90
2023-05-04T00:50:15.687Z,10.10
2023-05-04T00:52:46.884Z,10.20
2023-05-04T00:55:15.602Z,9.77
2023-05-04T00:57:45.725Z,10.43
2023-05-04T01:00:15.019Z,10.27
2023-05-04T01:02:43.985Z,10.00
2023-05-04T01:05:13.558Z,10.50
2023-05-04T01:07:54.540Z,10.70
2023-05-04T01:10:32.162Z,10.87
2023-05-04T01:13:07.549Z,10.07
2023-05-04T01:15:36.807Z,10.50
2023-05-04T01:18:05.424Z,10.60
2023-05-04T01:20:35.087Z,10.50
2023-05-04T01:23:05.680Z,10.47
2023-05-04T01:25:43.184Z,10.40
2023-05-04T01:28:17.866Z,10.80
2023-05-04T01:30:51.328Z,10.67
2023-05-04T01:33:21.144Z,10.40
2023-05-04T01:35:50.668Z,10.40
2023-05-04T01:38:20.567Z,10.00
2023-05-04T01:40:49.190Z,10.13
2023-05-04T01:43:17.568Z,10.50
2023-05-04T01:45:45.887Z,10.23
2023-05-04T01:48:14.210Z,9.70
2023-05-04T01:50:42.511Z,10.10
2023-05-04T01:53:10.904Z,10.57
2023-05-04T01:55:40.605Z,10.70
2023-05-04T01:58:10.309Z,9.80
2023-05-04T02:00:38.651Z,10.27
2023-05-04T02:03:07.116Z,10.33
2023-05-04T02:05:35.799Z,10.10
2023-05-04T02:08:04.286Z,10.77
2023-05-04T02:10:34.987Z,10.37
2023-05-04T02:13:04.813Z,10.73
2023-05-04T02:15:33.160Z,10.77
2023-05-04T02:18:01.606Z,10.70
2023-05-04T02:20:30.059Z,10.33
2023-05-04T02:22:58.363Z,10.50
2023-05-04T02:25:27.438Z,10.90
2023-05-04T02:27:55.768Z,10.20
2023-05-04T02:30:25.640Z,10.47
2023-05-04T02:32:53.964Z,10.67
2023-05-04T02:35:23.992Z,10.73
2023-05-04T02:37:52.307Z,11.00
2023-05-04T02:40:20.665Z,10.83
2023-05-04T02:42:49.073Z,10.53
2023-05-04T02:45:18.066Z,11.17
2023-05-04T02:47:47.828Z,10.17
2023-05-04T02:50:16.201Z,10.40
2023-05-04T02:52:44.561Z,10.73
2023-05-04T02:55:12.937Z,10.50
2023-05-04T02:57:41.398Z,10.27
2023-05-04T03:00:11.177Z,11.33
2023-05-04T03:02:39.646Z,10.23
2023-05-04T03:05:09.996Z,11.07
2023-05-04T03:07:38.394Z,11.17
2023-05-04T03:10:09.233Z,11.00
2023-05-04T03:12:37.618Z,10.30
2023-05-04T03:15:07.221Z,10.50
2023-05-04T03:17:35.650Z,10.30
2023-05-04T03:20:05.302Z,10.90
2023-05-04T03:22:36.113Z,10.27
2023-05-04T03:25:04.869Z,10.93
2023-05-04T03:27:33.290Z,10.13
2023-05-04T03:30:01.669Z,11.13
2023-05-04T03:32:30.152Z,10.83
2023-05-04T03:34:58.517Z,11.00
2023-05-04T03:37:26.932Z,10.50
2023-05-04T03:39:56.692Z,11.23
2023-05-04T03:42:25.015Z,11.30
2023-05-04T03:44:53.924Z,10.80
2023-05-04T03:47:22.275Z,11.00
2023-05-04T03:49:52.276Z,11.53
2023-05-04T03:52:22.240Z,11.33
2023-05-04T03:54:50.652Z,10.47
2023-05-04T03:57:22.375Z,11.07
2023-05-04T03:59:51.362Z,11.33
2023-05-04T04:02:19.839Z,10.80
2023-05-04T04:04:48.222Z,10.37
2023-05-04T04:07:16.993Z,11.00
2023-05-04T04:09:46.420Z,11.27
2023-05-04T04:12:16.169Z,10.60
2023-05-04T04:14:45.902Z,11.07
2023-05-04T04:17:14.253Z,11.37
2023-05-04T04:19:42.555Z,11.13
2023-05-04T04:22:10.893Z,10.70
2023-05-04T04:24:39.201Z,10.60
2023-05-04T04:27:07.507Z,10.90
2023-05-04T04:29:36.069Z,10.97
2023-05-04T04:32:06.481Z,10.70
2023-05-04T04:34:35.019Z,10.90
2023-05-04T04:37:03.356Z,11.10
2023-05-04T04:39:32.266Z,10.80
2023-05-04T04:42:00.606Z,11.27
2023-05-04T04:44:29.839Z,10.90
2023-05-04T04:46:58.223Z,11.30
2023-05-04T04:49:27.978Z,10.60
2023-05-04T04:51:56.818Z,10.97
2023-05-04T04:54:25.176Z,11.23
2023-05-04T04:56:53.625Z,11.17
2023-05-04T04:59:24.893Z,11.33
2023-05-04T05:01:53.541Z,10.73
2023-05-04T05:04:22.381Z,11.07
2023-05-04T05:06:54.198Z,11.80
2023-05-04T05:09:22.710Z,10.70
2023-05-04T05:11:51.114Z,11.30
2023-05-04T05:14:19.419Z,10.37
2023-05-04T05:16:47.773Z,11.23
2023-05-04T05:19:16.429Z,11.20
2023-05-04T05:21:44.796Z,10.77
2023-05-04T05:24:14.423Z,11.27
2023-05-04T05:26:42.763Z,10.80
2023-05-04T05:29:11.200Z,10.70
2023-05-04T05:31:41.105Z,10.57
2023-05-04T05:34:09.440Z,11.60
2023-05-04T05:36:37.786Z,11.50
2023-05-04T05:39:06.220Z,10.37
2023-05-04T05:41:35.971Z,11.07
2023-05-04T05:44:04.596Z,11.00
2023-05-04T05:46:32.991Z,11.10
2023-05-04T05:49:01.752Z,11.03
2023-05-04T05:51:30.297Z,10.70
2023-05-04T05:53:58.609Z,10.40
2023-05-04T05:56:26.951Z,11.80
2023-05-04T05:58:56.723Z,10.43
2023-05-04T06:01:25.158Z,10.57
2023-05-04T06:03:53.580Z,10.40
2023-05-04T06:06:22.074Z,10.90
2023-05-04T06:08:50.384Z,10.97
2023-05-04T06:11:18.676Z,10.70
2023-05-04T06:13:47.296Z,10.20
2023-05-04T06:16:17.197Z,10.90
2023-05-04T06:18:45.579Z,10.70
2023-05-04T06:21:14.599Z,10.33
2023-05-04T06:23:43.379Z,10.77
2023-05-04T06:26:11.705Z,10.80
2023-05-04T06:28:40.061Z,10.30
2023-05-04T06:31:08.493Z,10.80
2023-05-04T06:33:38.423Z,10.77
2023-05-04T06:36:07.444Z,10.33
2023-05-04T06:38:37.891Z,10.10
2023-05-04T06:41:07.539Z,10.80
2023-05-04T06:43:35.853Z,10.03
2023-05-04T06:46:04.778Z,9.93
2023-05-04T06:48:33.409Z,10.57
2023-05-04T06:51:03.235Z,9.80
2023-05-04T06:53:31.679Z,9.90
2023-05-04T06:56:00.043Z,10.00
2023-05-04T06:58:28.504Z,9.90
2023-05-04T07:00:56.880Z,9.80
2023-05-04T07:03:25.376Z,10.00
2023-05-04T07:05:53.732Z,10.27
2023-05-04T07:08:23.466Z,9.83
2023-05-04T07:10:51.811Z,9.87
2023-05-04T07:13:20.213Z,10.47
2023-05-04T07:15:48.567Z,9.60
2023-05-04T07:18:17.191Z,9.87
2023-05-04T07:20:45.856Z,10.03
2023-05-04T07:23:14.191Z,9.70
2023-05-04T07:25:44.802Z,9.70
2023-05-04T07:28:13.157Z,9.70
2023-05-04T07:30:41.478Z,9.77
2023-05-04T07:33:09.834Z,9.83
2023-05-04T07:35:38.207Z,9.40
2023-05-04T07:38:06.566Z,9.43
2023-05-04T07:40:35.033Z,9.30
2023-05-04T07:43:05.766Z,9.47
2023-05-04T07:45:34.147Z,9.47
2023-05-04T07:48:02.590Z,9.37
2023-05-04T07:50:30.982Z,9.10
2023-05-04T07:52:59.329Z,9.20
2023-05-04T07:55:29.094Z,9.10
2023-05-04T07:57:57.439Z,9.07
2023-05-04T08:00:27.771Z,8.87
2023-05-04T08:02:56.950Z,9.23
2023-05-04T08:05:25.412Z,8.90
2023-05-04T08:07:53.759Z,8.90
2023-05-04T08:10:22.113Z,8.90
2023-05-04T08:12:50.555Z,8.67
2023-05-04T08:15:19.327Z,8.70
2023-05-04T08:17:49.099Z,8.83
2023-05-04T08:20:17.546Z,8.93
2023-05-04T08:22:45.887Z,8.83
2023-05-04T08:25:14.318Z,8.90
2023-05-04T08:27:42.698Z,8.70
2023-05-04T08:30:11.878Z,8.50
2023-05-04T08:32:40.250Z,8.57
2023-05-04T08:35:10.661Z,8.53
2023-05-04T08:37:39.018Z,8.47
2023-05-04T08:40:09.381Z,8.50
2023-05-04T08:42:38.027Z,8.50
2023-05-04T08:45:08.210Z,8.60
2023-05-04T08:47:36.776Z,8.53
2023-05-04T08:50:07.511Z,8.33
2023-05-04T08:52:39.079Z,8.47
2023-05-04T08:55:08.818Z,8.60
2023-05-04T08:57:37.414Z,8.63
2023-05-04T09:00:08.744Z,8.37
2023-05-04T09:02:38.949Z,8.90
2023-05-04T09:05:08.698Z,8.20
2023-05-04T09:07:38.526Z,8.60
2023-05-04T09:10:08.779Z,8.50
2023-05-04T09:12:37.991Z,8.40
2023-05-04T09:15:17.701Z,8.53
2023-05-04T09:17:58.983Z,8.30
2023-05-04T09:20:27.867Z,8.60
2023-05-04T09:23:07.906Z,8.70
2023-05-04T09:25:47.988Z,8.33
2023-05-04T09:28:17.030Z,8.37
2023-05-04T09:30:48.164Z,8.40
2023-05-04T09:33:17.560Z,8.43
2023-05-04T09:35:45.992Z,8.40
2023-05-04T09:38:27.110Z,8.80
2023-05-04T09:40:56.059Z,8.47
2023-05-04T09:43:27.299Z,8.60
2023-05-04T09:45:55.664Z,8.50
2023-05-04T09:48:27.267Z,8.10
2023-05-04T09:50:57.959Z,8.47
2023-05-04T09:53:29.113Z,8.50
2023-05-04T09:56:11.123Z,8.50
2023-05-04T09:58:40.288Z,8.20
2023-05-04T10:01:09.142Z,8.20
2023-05-04T10:03:37.822Z,8.27
2023-05-04T10:06:09.142Z,8.30
2023-05-04T10:08:40.253Z,8.50
2023-05-04T10:11:09.304Z,8.37
2023-05-04T10:13:37.609Z,8.57
2023-05-04T10:16:32.728Z,8.47
2023-05-04T10:19:19.360Z,7.93
2023-05-04T10:22:16.276Z,8.37
2023-05-04T10:25:14.506Z,8.50
2023-05-04T10:27:57.850Z,8.40
2023-05-04T10:30:26.514Z,7.90
2023-05-04T10:32:58.888Z,8.20
2023-05-04T10:35:27.977Z,8.43
2023-05-04T10:37:57.809Z,8.30
2023-05-04T10:40:41.044Z,8.00
2023-05-04T10:43:11.684Z,8.03
2023-05-04T10:45:40.963Z,8.40
2023-05-04T10:48:10.646Z,8.20
2023-05-04T10:50:47.236Z,8.20
2023-05-04T10:53:17.542Z,8.20
2023-05-04T10:55:49.129Z,7.93
2023-05-04T10:58:20.217Z,8.10
2023-05-04T11:00:51.633Z,7.90
2023-05-04T11:03:22.392Z,8.20
2023-05-04T11:05:54.734Z,8.00
2023-05-04T11:08:25.991Z,8.00
2023-05-04T11:11:04.891Z,7.77
2023-05-04T11:13:36.054Z,7.80
2023-05-04T11:16:04.505Z,8.27
2023-05-04T11:18:35.349Z,8.10
2023-05-04T11:21:03.845Z,7.90
2023-05-04T11:23:32.882Z,8.30
2023-05-04T11:26:08.000Z,8.10
2023-05-04T11:28:38.632Z,8.10
2023-05-04T11:31:17.254Z,7.90
2023-05-04T11:33:48.177Z,8.00
2023-05-04T11:36:17.120Z,8.10
2023-05-04T11:38:45.713Z,8.00
2023-05-04T11:41:15.658Z,8.30
2023-05-04T11:43:46.658Z,7.90
2023-05-04T11:46:16.589Z,8.27
2023-05-04T11:48:45.545Z,8.07
2023-05-04T11:51:13.938Z,8.20
2023-05-04T11:53:42.689Z,8.07
2023-05-04T11:56:11.174Z,8.00
2023-05-04T11:58:40.934Z,8.00
2023-05-04T12:01:09.490Z,8.10
2023-05-04T12:03:53.076Z,8.20
2023-05-04T12:06:34.062Z,8.30
2023-05-04T12:09:07.184Z,8.20
2023-05-04T12:11:38.308Z,8.23
2023-05-04T12:14:10.491Z,8.00
2023-05-04T12:16:39.877Z,8.10
2023-05-04T12:19:11.171Z,7.77
2023-05-04T12:21:51.698Z,8.20
2023-05-04T12:24:22.008Z,8.10
2023-05-04T12:26:50.791Z,8.00
2023-05-04T12:29:20.482Z,8.17
2023-05-04T12:31:49.059Z,8.03
2023-05-04T12:34:17.577Z,8.10
2023-05-04T12:36:46.337Z,7.77
2023-05-04T12:39:14.731Z,8.20
2023-05-04T12:41:43.102Z,7.77
2023-05-04T12:44:13.931Z,8.17
2023-05-04T12:46:43.761Z,8.17
2023-05-04T12:49:14.738Z,8.10
2023-05-04T12:51:43.318Z,7.97
2023-05-04T12:54:11.792Z,8.33
2023-05-04T12:56:40.574Z,8.40
2023-05-04T12:59:09.064Z,8.00
2023-05-04T13:01:37.487Z,8.30
2023-05-04T13:04:07.313Z,8.37
2023-05-04T13:06:35.707Z,8.27
2023-05-04T13:09:06.059Z,8.03
2023-05-04T13:11:34.459Z,8.20
2023-05-04T13:14:02.903Z,8.20
2023-05-04T13:16:31.787Z,7.80
2023-05-04T13:19:00.375Z,7.90
2023-05-04T13:21:30.027Z,8.10
2023-05-04T13:23:59.350Z,7.90
2023-05-04T13:26:27.747Z,8.10
2023-05-04T13:28:56.108Z,8.00
2023-05-04T13:31:24.474Z,8.00
2023-05-04T13:33:53.401Z,8.20
2023-05-04T13:36:21.996Z,7.80
2023-05-04T13:38:51.676Z,8.10
2023-05-04T13:41:20.736Z,8.20
2023-05-04T13:43:49.795Z,7.90
2023-05-04T13:46:18.434Z,8.20
2023-05-04T13:48:46.811Z,8.23
2023-05-04T13:51:15.236Z,8.00
2023-05-04T13:53:43.670Z,7.83
2023-05-04T13:56:13.410Z,8.00
2023-05-04T13:58:41.756Z,7.97
2023-05-04T14:01:10.435Z,7.87
2023-05-04T14:03:38.838Z,8.27
2023-05-04T14:06:08.021Z,8.00
2023-05-04T14:08:36.420Z,8.20
2023-05-04T14:11:04.827Z,8.00
2023-05-04T14:13:34.596Z,8.57
2023-05-04T14:16:03.730Z,8.00
2023-05-04T14:18:32.997Z,8.30
2023-05-04T14:21:01.395Z,8.40
2023-05-04T14:23:29.772Z,8.27
2023-05-04T14:25:58.096Z,8.20
2023-05-04T14:28:26.916Z,8.03
2023-05-04T14:30:56.609Z,8.10
2023-05-04T14:33:25.071Z,7.80
2023-05-04T14:35:53.403Z,8.37
2023-05-04T14:38:21.748Z,7.90
2023-05-04T14:40:52.081Z,8.03
2023-05-04T14:43:20.449Z,8.00
2023-05-04T14:45:48.829Z,8.10
2023-05-04T14:48:18.700Z,8.17
2023-05-04T14:50:47.159Z,8.17
2023-05-04T14:53:15.546Z,8.20
2023-05-04T14:55:44.254Z,7.97
2023-05-04T14:58:14.097Z,8.10
2023-05-04T15:00:43.224Z,8.40
2023-05-04T15:03:11.764Z,8.13
2023-05-04T15:05:41.566Z,8.07
2023-05-04T15:08:09.972Z,8.23
2023-05-04T15:10:38.315Z,8.07
2023-05-04T15:13:06.671Z,8.20
2023-05-04T15:15:35.048Z,8.50
2023-05-04T15:18:03.560Z,8.00
2023-05-04T15:20:32.147Z,8.50
2023-05-04T15:23:03.416Z,8.30
2023-05-04T15:25:31.793Z,7.90
2023-05-04T15:28:00.163Z,8.37
2023-05-04T15:30:28.527Z,8.30
2023-05-04T15:32:57.171Z,8.07
2023-05-04T15:35:25.819Z,8.37
2023-05-04T15:37:54.343Z,8.37
2023-05-04T15:40:24.447Z,8.30
2023-05-04T15:42:52.814Z,8.30
2023-05-04T15:45:22.258Z,8.30
2023-05-04T15:47:51.791Z,8.00
2023-05-04T15:50:20.775Z,8.30
2023-05-04T15:52:49.334Z,8.50
2023-05-04T15:55:26.074Z,8.27
2023-05-04T15:57:56.360Z,8.30
2023-05-04T16:00:25.455Z,8.17
2023-05-04T16:02:53.979Z,8.10
2023-05-04T16:05:24.610Z,8.10
2023-05-04T16:07:53.280Z,8.23
2023-05-04T16:10:22.310Z,8.50
2023-05-04T16:12:50.894Z,8.40
2023-05-04T16:15:20.912Z,8.60
2023-05-04T16:17:49.267Z,8.33
2023-05-04T16:20:17.626Z,8.50
2023-05-04T16:22:45.906Z,8.40
2023-05-04T16:25:14.278Z,8.40
2023-05-04T16:27:42.637Z,8.60
2023-05-04T16:30:12.478Z,8.33
2023-05-04T16:32:42.260Z,8.47
2023-05-04T16:35:11.262Z,8.20
2023-05-04T16:37:39.958Z,8.40
2023-05-04T16:40:14.619Z,8.50
2023-05-04T16:42:43.346Z,8.17
2023-05-04T16:45:14.672Z,8.50
2023-05-04T16:47:45.752Z,8.37
2023-05-04T16:50:14.859Z,8.40
2023-05-04T16:52:43.638Z,8.30
2023-05-04T16:55:12.677Z,8.30
2023-05-04T16:57:41.312Z,8.40
2023-05-04T17:00:13.241Z,8.50
2023-05-04T17:02:42.127Z,8.50
2023-05-04T17:05:12.305Z,8.40
2023-05-04T17:07:43.406Z,8.40
2023-05-04T17:10:12.456Z,8.30
2023-05-04T17:12:41.977Z,8.40
2023-05-04T17:15:12.067Z,8.43
2023-05-04T17:17:41.365Z,8.20
2023-05-04T17:20:15.165Z,8.43
2023-05-04T17:22:44.029Z,8.20
2023-05-04T17:25:13.655Z,8.30
2023-05-04T17:27:43.804Z,8.60
2023-05-04T17:30:14.010Z,8.70
2023-05-04T17:32:42.471Z,8.50
2023-05-04T17:35:24.270Z,8.40
2023-05-04T17:37:58.023Z,8.43
2023-05-04T17:40:27.755Z,8.60
2023-05-04T17:42:56.993Z,8.30
2023-05-04T17:45:25.629Z,8.50
2023-05-04T17:47:54.378Z,8.30
2023-05-04T17:50:24.608Z,8.50
2023-05-04T17:52:54.080Z,8.23
2023-05-04T17:55:23.737Z,8.47
2023-05-04T17:57:53.666Z,8.40
2023-05-04T18:00:22.782Z,8.43
2023-05-04T18:02:51.373Z,8.30
2023-05-04T18:05:19.982Z,8.50
2023-05-04T18:07:49.765Z,8.50
2023-05-04T18:10:18.253Z,8.70
2023-05-04T18:12:46.693Z,8.60
2023-05-04T18:15:16.456Z,8.30
2023-05-04T18:17:45.047Z,8.53
2023-05-04T18:20:13.740Z,8.40
2023-05-04T18:22:42.112Z,8.40
2023-05-04T18:25:12.078Z,8.83
2023-05-04T18:27:40.539Z,8.47
2023-05-04T18:30:10.828Z,8.83
2023-05-04T18:32:39.380Z,8.53
2023-05-04T18:35:08.800Z,8.83
2023-05-04T18:37:37.161Z,8.33
2023-05-04T18:40:06.799Z,8.30
2023-05-04T18:42:36.920Z,8.70
2023-05-04T18:45:07.047Z,8.40
2023-05-04T18:47:35.459Z,8.50
2023-05-04T18:50:03.869Z,8.60
2023-05-04T18:52:33.624Z,8.60
2023-05-04T18:55:01.989Z,8.60
2023-05-04T18:57:30.381Z,8.77
2023-05-04T19:00:00.267Z,9.10
2023-05-04T19:02:30.112Z,8.90
2023-05-04T19:04:58.758Z,8.80
2023-05-04T19:07:27.124Z,9.10
2023-05-04T19:09:55.478Z,9.53
2023-05-04T19:12:23.989Z,9.70
2023-05-04T19:14:52.304Z,9.60
2023-05-04T19:17:22.810Z,9.90
2023-05-04T19:19:51.757Z,10.03
2023-05-04T19:22:20.111Z,9.40
2023-05-04T19:24:51.908Z,9.70
2023-05-04T19:27:20.265Z,9.50
2023-05-04T19:29:48.620Z,9.30
2023-05-04T19:32:24.445Z,9.20
2023-05-04T19:34:54.863Z,9.30
2023-05-04T19:37:23.213Z,9.37
2023-05-04T19:39:51.871Z,9.30
2023-05-04T19:42:20.214Z,9.27
2023-05-04T19:44:48.548Z,9.30
2023-05-04T19:47:16.939Z,8.80
2023-05-04T19:49:48.498Z,8.97
2023-05-04T19:52:18.295Z,8.90
2023-05-04T19:54:48.565Z,9.30
2023-05-04T19:57:17.061Z,9.20
2023-05-04T19:59:47.051Z,9.40
2023-05-04T20:02:16.108Z,9.00
2023-05-04T20:04:44.547Z,8.83
2023-05-04T20:07:12.859Z,9.00
2023-05-04T20:09:42.502Z,9.23
2023-05-04T20:12:11.385Z,9.53
2023-05-04T20:14:41.226Z,9.73
2023-05-04T20:17:09.625Z,9.20
2023-05-04T20:19:40.618Z,9.10
2023-05-04T20:22:09.019Z,9.40
2023-05-04T20:24:37.408Z,9.20
2023-05-04T20:27:07.120Z,8.93
2023-05-04T20:29:36.015Z,9.53
2023-05-04T20:32:05.478Z,9.30
2023-05-04T20:34:34.088Z,9.30
2023-05-04T20:37:02.420Z,9.10
2023-05-04T20:39:30.714Z,9.17
2023-05-04T20:41:59.561Z,9.60
2023-05-04T20:44:29.532Z,9.10
2023-05-04T20:46:58.403Z,9.10
2023-05-04T20:49:27.268Z,9.20
2023-05-04T20:51:55.845Z,9.07
2023-05-04T20:54:24.756Z,9.37
2023-05-04T20:56:53.018Z,8.90
2023-05-04T20:59:21.572Z,9.20
2023-05-04T21:01:51.341Z,9.43
2023-05-04T21:04:19.772Z,9.20
2023-05-04T21:06:48.501Z,8.87
2023-05-04T21:09:17.161Z,9.37
2023-05-04T21:11:45.493Z,9.20
2023-05-04T21:14:13.800Z,8.93
2023-05-04T21:16:42.084Z,9.00
2023-05-04T21:19:11.863Z,9.20
2023-05-04T21:21:41.394Z,9.47
2023-05-04T21:24:13.247Z,9.13
2023-05-04T21:26:42.279Z,9.40
2023-05-04T21:29:13.832Z,9.30
2023-05-04T21:31:42.695Z,9.03
2023-05-04T21:34:12.399Z,9.20
2023-05-04T21:36:41.704Z,9.10
2023-05-04T21:39:10.153Z,8.80
2023-05-04T21:41:39.671Z,9.10
2023-05-04T21:44:07.965Z,9.20
2023-05-04T21:46:36.411Z,9.07
2023-05-04T21:49:04.766Z,9.27
2023-05-04T21:51:34.491Z,9.03
2023-05-04T21:54:03.118Z,9.43
2023-05-04T21:56:31.620Z,9.10
2023-05-04T21:58:59.969Z,9.10
2023-05-04T22:01:28.805Z,9.10
2023-05-04T22:03:57.364Z,9.20
2023-05-04T22:06:25.957Z,9.40
2023-05-04T22:08:55.633Z,9.43
2023-05-04T22:11:23.959Z,9.20
2023-05-04T22:13:53.025Z,8.90
2023-05-04T22:16:21.420Z,9.30
2023-05-04T22:18:50.584Z,9.00
2023-05-04T22:21:18.874Z,9.13
2023-05-04T22:23:47.213Z,9.20
2023-05-04T22:26:16.943Z,9.27
2023-05-04T22:28:45.313Z,9.27
2023-05-04T22:31:13.699Z,9.20
2023-05-04T22:33:42.038Z,9.37
2023-05-04T22:36:10.974Z,9.17
2023-05-04T22:38:39.315Z,9.57
2023-05-04T22:41:07.897Z,9.40
2023-05-04T22:43:37.559Z,9.00
2023-05-04T22:46:06.159Z,9.10
2023-05-04T22:48:34.539Z,9.13
2023-05-04T22:51:03.950Z,9.23
2023-05-04T22:53:32.268Z,9.27
2023-05-04T22:56:00.662Z,9.10
2023-05-04T22:58:29.033Z,9.10
2023-05-04T23:00:58.693Z,9.83
2023-05-04T23:03:27.112Z,9.60
2023-05-04T23:05:55.525Z,9.33
2023-05-04T23:08:23.846Z,9.33
2023-05-04T23:10:52.140Z,9.23
2023-05-04T23:13:20.459Z,9.07
2023-05-04T23:15:48.936Z,9.23
2023-05-04T23:18:18.650Z,9.13
2023-05-04T23:20:47.012Z,9.17
2023-05-04T23:23:15.332Z,9.43
2023-05-04T23:25:43.792Z,9.60
2023-05-04T23:28:12.319Z,9.50
2023-05-04T23:30:40.727Z,9.33
2023-05-04T23:33:09.078Z,9.27
2023-05-04T23:35:38.748Z,9.30
2023-05-04T23:38:07.251Z,9.10
2023-05-04T23:40:36.619Z,9.47
2023-05-04T23:43:04.924Z,9.43
2023-05-04T23:45:33.441Z,9.30
2023-05-04T23:48:01.830Z,9.40
2023-05-04T23:50:30.142Z,9.60
2023-05-04T23:53:00.068Z,9.20
2023-05-04T23:55:28.525Z,9.23
2023-05-04T23:57:56.851Z,9.37
